Tiempo atmosférico en la estación meteorológica de Alcoy/Alcoi, Alacant/Alicante (600 m.)



Fecha
DESCASC
Temp. máxima en grados centígrados (hora)
DESCASC
Temp. mínima en grados centígrados (hora)
DESCASC
Temp. media en grados centígrados
DESCASC
Racha de viento máxima en m/sg (hora)
DESCASC
Velocidad máxima media en intervalos de 10 minutos(hora)
DESCASC
Precipitaciones diarias en mm
DESCASC
Precipitaciones de 00:00 a 06:00 en mm
DESCASC
Precipitaciones de 06:00 a 12:00 en mm
DESCASC
Precipitaciones de 12:00 a 18:00 en mm
DESCASC
Precipitaciones de 18:00 a 24:00 en mm
DESCASC
20-09-2020 27.3 (17:20) 16.3 (06:00) 21.8 7.78 (11:20) 3.89 (13:50) 0 0 0 0 0
19-09-2020 27.7 (16:30) 17.2 (08:10) 22.5 8.89 (18:40) 4.44 (15:30) 0 0 0 0 0
18-09-2020 24.1 (17:20) 16.2 (09:10) 20.2 9.72 (18:10) 4.44 (07:00) 7.8 0 6.2 1.4 0.2
17-09-2020 28.8 (16:30) 19.1 (00:00) 23.9 7.22 (17:20) 3.61 (15:20) 0 0 0 0 0
16-09-2020 31.9 (14:50) 17.4 (00:00) 24.6 7.78 (14:20) 4.17 (14:20) 0 0 0 0 0
15-09-2020 29.9 (16:30) 18 (00:00) 23.9 6.39 (13:50) 3.89 (14:10) 0 0 0 0 0
14-09-2020 29.7 (15:00) 16.3 (00:00) 23 7.22 (15:20) 4.17 (15:40) 0 0 0 0 0
13-09-2020 30.7 (16:00) 16.2 (00:00) 23.5 6.67 (17:40) 3.89 (16:20) 0 0 0 0 0
12-09-2020 31.4 (13:30) 16.2 (00:00) 23.8 7.5 (16:10) 3.89 (18:20) 0 0 0 0 0
11-09-2020 30.4 (14:20) 16 (00:00) 23.2 8.61 (18:40) 4.17 (17:50) 0 0 0 0 0
10-09-2020 27 (16:50) 15.1 (00:00) 21.1 7.5 (17:00) 3.89 (14:50) 0 0 0 0 0
09-09-2020 25.5 (15:00) 15.6 (00:00) 20.6 6.94 (12:40) 4.17 (12:40) 0 0 0 0 0
08-09-2020 23 (14:40) 14.8 (00:00) 18.9 8.06 (15:40) 4.17 (14:50) 0.6 0 0.6 0 0
07-09-2020 22.2 (11:30) 16.5 (05:50) 19.4 9.44 (11:50) 4.17 (18:40) 0 0 0 0 0
06-09-2020 29.9 (16:10) 15.8 (00:00) 22.8 6.67 (16:20) 3.33 (17:20) 0 0 0 0 0
05-09-2020 29.5 (15:20) 15.7 (00:00) 22.6 7.5 (17:20) 3.89 (17:20) 0 0 0 0 0
04-09-2020 29.7 (16:30) 13.9 (00:00) 21.8 6.11 (17:40) 3.33 (18:10) 0 0 0 0 0
03-09-2020 28.4 (13:00) 15.4 (00:00) 21.9 7.5 (18:00) 3.61 (16:20) 0 0 0 0 0
02-09-2020 26.4 (13:50) 16.1 (00:00) 21.3 8.61 (15:10) 4.44 (16:40) 0 0 0 0 0
01-09-2020 25.9 (14:50) 14.3 (00:00) 20.1 6.11 (16:50) 2.78 (16:40) 0 0 0 0 0
31-08-2020 26.3 (14:00) 12.5 (00:00) 19.4 10.56 (17:30) 4.72 (16:10) 0 0 0 0 0
30-08-2020 25.1 (15:20) 13.9 (00:00) 19.5 7.5 (17:30) 5 (17:30) 0 0 0 0 0
29-08-2020 27.2 (00:20) 16.8 (00:00) 22 9.44 (14:00) 5 (15:50) 2 0 0 2 0
28-08-2020 35.7 (15:40) 21.4 (00:00) 28.6 7.78 (12:10) 3.89 (12:00) 0 0 0 0 0
27-08-2020 36.7 (14:20) 20.7 (00:00) 28.7 10.28 (17:10) 5 (16:00) 0 0 0 0 0
26-08-2020 35.8 (14:30) 19.8 (00:00) 27.8 8.33 (12:30) 3.89 (15:20) 0 0 0 0 0
25-08-2020 36.4 (15:40) 18.7 (00:00) 27.6 9.44 (17:40) 4.72 (18:50) 0 0 0 0 0
24-08-2020 31.8 (16:20) 21.5 (00:00) 26.6 6.67 (19:20) 3.89 (19:20) 0 0 0 0 0
23-08-2020 30.9 (13:50) 21.5 (00:00) 26.2 8.33 (17:30) 3.89 (16:40) 0.2 0 0 0.2 0

Gráficas

Temp. máximas Temp. mínimas Temp. medias Precipitaciones Rachas de viento máximas Velocidades máximas media en intervalos de 10 minutos

Datos horarios

Fecha y hora oficial Temperatura (ºC) Velocidad del viento (km/h) Dirección del viento Racha (km/h) Dirección de racha Precipitación (mm) Presión (hPa) Tendencia (hPa) Humedad (%)
2020-09-21 23:00:00 20 6 Sudoeste 14 Sudoeste 0 -- -- 62
2020-09-21 22:00:00 20.8 5 Sudoeste 13 Sudoeste 0 -- -- 59
2020-09-21 21:00:00 21.9 5 Sudoeste 15 Sudoeste 0 -- -- 55
2020-09-21 20:00:00 23 6 Sudoeste 22 Sudoeste 0 -- -- 53
2020-09-21 19:00:00 25.4 4 Nordeste 16 Norte 0 -- -- 49
2020-09-21 18:00:00 26.7 8 Norte 20 Norte 0 -- -- 43
2020-09-21 17:00:00 27.8 9 Sudeste 21 Este 0 -- -- 32
2020-09-21 16:00:00 27.4 6 Sur 24 Sudoeste 0 -- -- 34
2020-09-21 15:00:00 27.5 10 Sudoeste 30 Sudoeste 0 -- -- 33
2020-09-21 14:00:00 26.5 13 Sudoeste 26 Sudoeste 0 -- -- 37
2020-09-21 13:00:00 26.1 9 Sudoeste 25 Sudoeste 0 -- -- 39
2020-09-21 12:00:00 25.4 7 Sudoeste 17 Sudoeste 0 -- -- 40
2020-09-21 11:00:00 23.6 8 Sudoeste 15 Sur 0 -- -- 50
2020-09-21 10:00:00 20.6 6 Sur 12 Sur 0 -- -- 61
2020-09-21 09:00:00 17.7 8 Sudoeste 15 Sudoeste 0 -- -- 68
2020-09-21 08:00:00 16.8 8 Sudoeste 18 Sudoeste 0 -- -- 70
2020-09-21 07:00:00 17.7 13 Sur 22 Sur 0 -- -- 66
2020-09-21 06:00:00 17 10 Sur 15 Sur 0 -- -- 68
2020-09-21 05:00:00 17 4 Sudoeste 13 Sudoeste 0 -- -- 67
2020-09-21 04:00:00 17.4 6 Sudoeste 11 Sudoeste 0 -- -- 66
2020-09-21 03:00:00 18.1 7 Sudoeste 11 Oeste 0 -- -- 62
2020-09-21 02:00:00 17.9 0 Calma 11 Sudoeste 0 -- -- 65
2020-09-21 01:00:00 19.3 5 Sudoeste 9 Sudoeste 0 -- -- 60
2020-09-21 00:00:00 19.9 4 Sudoeste 11 Sudoeste 0 -- -- 59
2020-09-20 23:00:00 20.2 6 Sudoeste 14 Sudoeste 0 -- -- 57
2020-09-20 22:00:00 21.1 7 Sudoeste 15 Oeste 0 -- -- 55
2020-09-20 21:00:00 22.5 6 Sudoeste 15 Sudoeste 0 -- -- 50
2020-09-20 20:00:00 23.8 6 Oeste 21 Noroeste 0 -- -- 45
2020-09-20 19:00:00 25.1 6 Oeste 24 Oeste 0 -- -- 41
2020-09-20 18:00:00 25.9 6 Noroeste 27 Oeste 0 -- -- 39
2020-09-20 17:00:00 26.5 8 Oeste 24 Oeste 0 -- -- 38
2020-09-20 16:00:00 26 8 Oeste 27 Oeste 0 -- -- 40
2020-09-20 15:00:00 25.8 8 Oeste 22 Oeste 0 -- -- 41
2020-09-20 14:00:00 26.1 7 Noroeste 26 Oeste 0 -- -- 40
2020-09-20 13:00:00 24.8 9 Oeste 24 Oeste 0 -- -- 42
2020-09-20 12:00:00 23.9 8 Oeste 28 Oeste 0 -- -- 49
2020-09-20 11:00:00 23.1 12 Oeste 26 Sudoeste 0 -- -- 51
2020-09-20 10:00:00 21.2 13 Oeste 24 Oeste 0 -- -- 58
2020-09-20 09:00:00 19 7 Sudoeste 21 Sudoeste 0 -- -- 64
2020-09-20 08:00:00 18.3 13 Oeste 25 Sudoeste 0 -- -- 66
2020-09-20 07:00:00 16.8 12 Sudoeste 19 Sudoeste 0 -- -- 71
2020-09-20 06:00:00 16.3 10 Sudoeste 18 Sudoeste 0 -- -- 73
2020-09-20 05:00:00 16.8 9 Sudoeste 15 Sudoeste 0 -- -- 72
2020-09-20 04:00:00 17.8 8 Sudoeste 12 Oeste 0 -- -- 69
2020-09-20 03:00:00 18.2 6 Sudoeste 12 Sudoeste 0 -- -- 68
2020-09-20 02:00:00 18.2 4 Oeste 8 Sudoeste 0 -- -- 68
2020-09-20 01:00:00 19.1 5 Sudoeste 9 Sudoeste 0 -- -- 64
2020-09-20 00:00:00 19.7 6 Sudoeste 10 Sudoeste 0 -- -- 63
2020-09-19 23:00:00 20.8 4 Sudoeste 13 Sudoeste 0 -- -- 58
2020-09-19 22:00:00 21.8 5 Sudoeste 15 Sudoeste 0 -- -- 54
2020-09-19 21:00:00 22.5 5 Sudoeste 21 Oeste 0 -- -- 51
2020-09-19 20:00:00 23.6 6 Noroeste 21 Sudoeste 0 -- -- 48
2020-09-19 19:00:00 25.6 8 Oeste 32 Oeste 0 -- -- 41
2020-09-19 18:00:00 26 8 Oeste 31 Sudoeste 0 -- -- 38
2020-09-19 17:00:00 27.6 10 Oeste 31 Oeste 0 -- -- 35
2020-09-19 16:00:00 26.5 12 Sudoeste 31 Sudoeste 0 -- -- 39
2020-09-19 15:00:00 26.3 9 Sudoeste 24 Oeste 0 -- -- 40
2020-09-19 14:00:00 25.7 11 Sudoeste 30 Oeste 0 -- -- 44
2020-09-19 13:00:00 25.6 12 Oeste 27 Sudoeste 0 -- -- 40
2020-09-19 12:00:00 23.9 11 Sudoeste 29 Oeste 0 -- -- 46
2020-09-19 11:00:00 23.2 14 Sudoeste 28 Oeste 0 -- -- 47
2020-09-19 10:00:00 21.7 14 Sudoeste 27 Oeste 0 -- -- 54
2020-09-19 09:00:00 19.1 8 Oeste 14 Oeste 0 -- -- 72
2020-09-19 08:00:00 17.4 9 Sudoeste 15 Oeste 0 -- -- 82
2020-09-19 07:00:00 17.9 8 Sudoeste 14 Sudoeste 0 -- -- 83
2020-09-19 06:00:00 18.6 7 Sudoeste 12 Sudoeste 0 -- -- 81
2020-09-19 05:00:00 18.4 8 Oeste 13 Oeste 0 -- -- 80
2020-09-19 04:00:00 18.5 3 Sudoeste 10 Sudoeste 0 -- -- 81
2020-09-19 03:00:00 18.2 2 Sudeste 6 Noroeste 0 -- -- 83
2020-09-19 02:00:00 19.5 4 Sudoeste 10 Sudoeste 0 -- -- 80
2020-09-19 01:00:00 18.8 3 Sudoeste 6 Sudoeste 0 -- -- 81
2020-09-19 00:00:00 18.4 0 Calma 10 Norte 0 -- -- 80
2020-09-18 23:00:00 18.5 3 Noroeste 9 Sudoeste 0 -- -- 80
2020-09-18 22:00:00 20.2 8 Sudoeste 17 Sudoeste 0 -- -- 72
2020-09-18 21:00:00 20.3 5 Oeste 15 Sudoeste 0 -- -- 72
2020-09-18 20:00:00 20.2 4 Este 27 Sur 0 -- -- 74
2020-09-18 19:00:00 20.7 6 Sudeste 35 Sur 0.2 -- -- 71
2020-09-18 18:00:00 21.9 16 Sur 35 Sur 0 -- -- 63
2020-09-18 17:00:00 23.9 7 Sudoeste 23 Sudoeste 0 -- -- 55
2020-09-18 16:00:00 20.8 8 Oeste 30 Sudoeste 0.8 -- -- 71
2020-09-18 15:00:00 20.5 9 Sudoeste 25 Oeste 0.4 -- -- 73
2020-09-18 14:00:00 21.5 6 Oeste 21 Sudoeste 0.2 -- -- 69
2020-09-18 13:00:00 22.1 10 Sudoeste 30 Sudoeste 0 -- -- 64
2020-09-18 12:00:00 22 10 Sudoeste 26 Sudoeste 0 -- -- 64
2020-09-18 11:00:00 20 7 Sudoeste 15 Oeste 0 -- -- 75
2020-09-18 10:00:00 17.3 3 Sur 18 Sudoeste 3.2 -- -- 88
2020-09-18 09:00:00 16.4 4 Sur 14 Sudoeste 1.8 -- -- 88
2020-09-18 08:00:00 16.9 5 Sudoeste 22 Sudoeste 0.8 -- -- 82
2020-09-18 07:00:00 19.1 16 Sudoeste 33 Sudoeste 0.4 -- -- 68
2020-09-18 06:00:00 21.7 12 Oeste 25 Oeste 0 -- -- 63
2020-09-18 05:00:00 20.3 0 Calma 9 Sudoeste 0 -- -- 51
2020-09-18 04:00:00 20.3 6 Sudoeste 12 Oeste 0 -- -- 49
2020-09-18 03:00:00 20.4 5 Sudoeste 10 Oeste 0 -- -- 50
2020-09-18 02:00:00 20.3 4 Oeste 8 Sudoeste 0 -- -- 54
2020-09-18 01:00:00 20.3 3 Noroeste 6 Sudoeste 0 -- -- 57
2020-09-18 00:00:00 21.4 4 Oeste 13 Oeste 0 -- -- 54
2020-09-17 23:00:00 22.1 6 Oeste 20 Oeste 0 -- -- 52
2020-09-17 22:00:00 22.5 4 Sudoeste 8 Sudoeste 0 -- -- 47
2020-09-17 21:00:00 24.2 3 Sudoeste 13 Sudoeste 0 -- -- 44
2020-09-17 20:00:00 25 5 Sudoeste 15 Sudoeste 0 -- -- 48
2020-09-17 19:00:00 25.8 10 Sudoeste 23 Sudoeste 0 -- -- 43
2020-09-17 18:00:00 27.7 12 Sudoeste 26 Sudoeste 0 -- -- 34
2020-09-17 17:00:00 28.4 11 Sudoeste 23 Sudoeste 0 -- -- 33
2020-09-17 16:00:00 27.7 10 Sudoeste 25 Sudoeste 0 -- -- 35
2020-09-17 15:00:00 28.2 7 Sudoeste 18 Oeste 0 -- -- 32
2020-09-17 14:00:00 26.2 9 Sudoeste 20 Oeste 0 -- -- 39
2020-09-17 13:00:00 26.1 9 Oeste 19 Oeste 0 -- -- 37
2020-09-17 12:00:00 -- 7 Oeste -- -- -- -- -- --
2020-09-17 11:00:00 20.9 4 Este 8 Sudoeste 0 -- -- 62
2020-09-17 10:00:00 20.1 3 Sudoeste 12 Sudoeste 0 -- -- 64
2020-09-17 09:00:00 19.1 5 Sur 9 Sudeste 0 -- -- 68
2020-09-17 08:00:00 19.7 0 Calma 8 Oeste 0 -- -- 61
2020-09-17 07:00:00 20.2 5 Sudoeste 12 Sudoeste 0 -- -- 56
2020-09-17 06:00:00 19.5 2 Sudoeste 8 Este 0 -- -- 59
2020-09-17 05:00:00 19.9 2 Sudeste 12 Sudoeste 0 -- -- 57
2020-09-17 04:00:00 19.6 0 Calma 12 Oeste 0 -- -- 53
2020-09-17 03:00:00 20.2 6 Oeste 15 Sudoeste 0 -- -- 51
2020-09-17 02:00:00 19.6 3 Oeste 8 Sudoeste 0 -- -- 53
2020-09-17 01:00:00 20.6 2 Oeste 15 Sudoeste 0 -- -- 51
2020-09-17 00:00:00 22 7 Sudoeste 15 Sudoeste -- -- -- 48
2020-09-16 23:00:00 23.3 6 Oeste 14 Sudoeste 0 -- -- 44
2020-09-16 22:00:00 24.2 5 Sudoeste 10 Sudoeste 0 -- -- 42
2020-09-16 21:00:00 25.5 6 Sudoeste 13 Sudoeste 0 -- -- 42
2020-09-16 20:00:00 26.5 3 Sudoeste 14 Oeste 0 -- -- 45
2020-09-16 19:00:00 27.6 6 Oeste 21 Sudoeste 0 -- -- 42
2020-09-16 18:00:00 29.1 7 Sur 24 Sudoeste 0 -- -- 39
2020-09-16 17:00:00 30.2 11 Sur 26 Sur 0 -- -- 37
2020-09-16 16:00:00 30.9 10 Sur 24 Sur 0 -- -- 35
2020-09-16 15:00:00 31.3 10 Sur 28 Este 0 -- -- 34
2020-09-16 14:00:00 31 12 Nordeste 21 Este 0 -- -- 29
2020-09-16 13:00:00 29.5 6 Norte 16 Este 0 -- -- 36
2020-09-16 12:00:00 26.7 8 Este 16 Este 0 -- -- 43
2020-09-16 11:00:00 24.2 9 Este 12 Nordeste 0 -- -- 49
2020-09-16 10:00:00 22.8 5 Sudoeste 9 Sudoeste 0 -- -- 45
2020-09-16 09:00:00 19.9 3 Sudoeste 15 Oeste 0 -- -- 52
2020-09-16 08:00:00 17.8 9 Oeste 14 Oeste 0 -- -- 58
2020-09-16 07:00:00 17.8 10 Sudoeste 17 Sudoeste 0 -- -- 58
2020-09-16 06:00:00 17.7 8 Sudoeste 17 Oeste 0 -- -- 58
2020-09-16 05:00:00 18.6 5 Oeste 12 Sudoeste 0 -- -- 56
2020-09-16 04:00:00 18.9 3 Sudoeste 17 Oeste 0 -- -- 54
2020-09-16 03:00:00 19.8 8 Sudoeste 16 Oeste 0 -- -- 51
2020-09-16 02:00:00 20 8 Sudoeste 15 Sudoeste 0 -- -- 53
2020-09-16 01:00:00 20.9 9 Sudoeste 15 Sudoeste 0 -- -- 51
2020-09-16 00:00:00 21.3 7 Sudoeste 16 Oeste 0 -- -- 54
2020-09-15 23:00:00 22.6 10 Oeste 14 Sudoeste 0 -- -- 51
2020-09-15 22:00:00 23.4 6 Sudoeste 14 Sur 0 -- -- 52
2020-09-15 21:00:00 24.8 6 Sur 14 Sur 0 -- -- 52
2020-09-15 20:00:00 25.8 8 Sudoeste 18 Sudoeste 0 -- -- 54
2020-09-15 19:00:00 28 6 Sudoeste 17 Sur 0 -- -- 48
2020-09-15 18:00:00 28.6 8 Sur 19 Sudoeste 0 -- -- 47
2020-09-15 17:00:00 29 10 Este 22 Sudeste 0 -- -- 48
2020-09-15 16:00:00 29.3 9 Nordeste 23 Este 0 -- -- 49
2020-09-15 15:00:00 29.3 8 Nordeste 23 Nordeste 0 -- -- 44
2020-09-15 14:00:00 28.5 13 Nordeste 23 Este 0 -- -- 42
2020-09-15 13:00:00 27.8 9 Nordeste 19 Este 0 -- -- 43
2020-09-15 12:00:00 26 11 Este 18 Este 0 -- -- 48
2020-09-15 11:00:00 24.6 9 Nordeste 16 Nordeste 0 -- -- 50
2020-09-15 10:00:00 23.3 2 Sudoeste 10 Sudoeste 0 -- -- 51
2020-09-15 09:00:00 19.5 5 Sudoeste 13 Sudoeste 0 -- -- 62
2020-09-15 08:00:00 18.3 6 Oeste 13 Oeste 0 -- -- 65
2020-09-15 07:00:00 18.4 0 Calma 10 Sudoeste 0 -- -- 65
2020-09-15 06:00:00 19.5 7 Oeste 14 Sudoeste 0 -- -- 61
2020-09-15 05:00:00 19.4 3 Sudoeste 12 Sur 0 -- -- 62
2020-09-15 04:00:00 19.4 3 Sur 12 Nordeste 0 -- -- 65
2020-09-15 03:00:00 20.1 4 Oeste 10 Oeste 0 -- -- 66
2020-09-15 02:00:00 20.3 3 Noroeste 9 Sudoeste 0 -- -- 56
2020-09-15 01:00:00 20.7 7 Sudoeste 11 Oeste 0 -- -- 55
2020-09-15 00:00:00 20.8 5 Sudoeste 9 Sudoeste 0 -- -- 57
2020-09-14 23:00:00 21.4 2 Sur 10 Oeste 0 -- -- 57
2020-09-14 22:00:00 22.2 4 Sudoeste 10 Oeste 0 -- -- 56
2020-09-14 21:00:00 23.6 4 Sur 14 Sudoeste 0 -- -- 46
2020-09-14 20:00:00 25.1 3 Sudeste 21 Este 0 -- -- 39
2020-09-14 19:00:00 26.9 10 Sudeste 25 Sudeste 0 -- -- 35
2020-09-14 18:00:00 28.1 12 Sudeste 24 Sudeste 0 -- -- 34
2020-09-14 17:00:00 28.7 13 Este 26 Este 0 -- -- 35
2020-09-14 16:00:00 28.9 13 Sudeste 26 Este 0 -- -- 33
2020-09-14 15:00:00 29.7 8 Norte 22 Nordeste 0 -- -- 44
2020-09-14 14:00:00 28.3 8 Nordeste 20 Nordeste 0 -- -- 42
2020-09-14 13:00:00 27.3 9 Nordeste 19 Este 0 -- -- 43
2020-09-14 12:00:00 25.1 9 Este 17 Este 0 -- -- 58
2020-09-14 11:00:00 22.8 8 Este 14 Este 0 -- -- 60
2020-09-14 10:00:00 22.2 2 Sur 10 Oeste 0 -- -- 54
2020-09-14 09:00:00 16.6 5 Sudoeste 15 Oeste 0 -- -- 70
2020-09-14 08:00:00 16.4 6 Oeste 14 Oeste 0 -- -- 70
2020-09-14 07:00:00 16.3 8 Sudoeste 15 Sudoeste 0 -- -- 70
2020-09-14 06:00:00 17.1 8 Sudoeste 15 Oeste 0 -- -- 68
2020-09-14 05:00:00 17.5 7 Oeste 16 Sudoeste 0 -- -- 67
2020-09-14 04:00:00 17.3 8 Sudoeste 15 Sudoeste 0 -- -- 67
2020-09-14 03:00:00 18.1 8 Sudoeste 16 Oeste 0 -- -- 65
2020-09-14 02:00:00 18.2 9 Sudoeste 16 Sudoeste 0 -- -- 66
2020-09-14 01:00:00 18.9 9 Sudoeste 13 Sudoeste 0 -- -- 64
2020-09-14 00:00:00 19.6 6 Sudoeste 15 Sudoeste 0 -- -- 64
2020-09-13 23:00:00 21 6 Oeste 12 Oeste 0 -- -- 61
2020-09-13 22:00:00 21.4 2 Oeste 4 Noroeste 0 -- -- 63
2020-09-13 21:00:00 23.1 0 Calma 8 Este 0 -- -- 60
2020-09-13 20:00:00 25.6 8 Este 18 Este 0 -- -- 51
2020-09-13 19:00:00 27.1 9 Este 20 Este 0 -- -- 42
2020-09-13 18:00:00 28.2 11 Este 24 Este 0 -- -- 40
2020-09-13 17:00:00 29.1 12 Sudeste 23 Sudeste 0 -- -- 38
2020-09-13 16:00:00 30.7 6 Este 23 Norte 0 -- -- 37
2020-09-13 15:00:00 29.9 11 Nordeste 23 Nordeste 0 -- -- 39
2020-09-13 14:00:00 29.1 13 Nordeste 23 Nordeste 0 -- -- 40
2020-09-13 13:00:00 28 11 Nordeste 21 Este 0 -- -- 42
2020-09-13 12:00:00 26.4 8 Este 15 Este 0 -- -- 47
2020-09-13 11:00:00 23.9 6 Este 10 Este 0 -- -- 52
2020-09-13 10:00:00 23.1 3 Este 11 Sudoeste 0 -- -- 51
2020-09-13 09:00:00 18.3 7 Oeste 15 Sudoeste 0 -- -- 62
2020-09-13 08:00:00 16.2 7 Sudoeste 15 Sudoeste 0 -- -- 68
2020-09-13 07:00:00 16.4 9 Sudoeste 15 Sudoeste 0 -- -- 67
2020-09-13 06:00:00 16.7 8 Sudoeste 13 Sudoeste 0 -- -- 65
2020-09-13 05:00:00 17 8 Sudoeste 14 Sudoeste 0 -- -- 64
2020-09-13 04:00:00 17.8 7 Sudoeste 14 Oeste 0 -- -- 62
2020-09-13 03:00:00 18 6 Sudoeste 14 Sudoeste 0 -- -- 63
2020-09-13 02:00:00 18.8 8 Sudoeste 16 Sudoeste 0 -- -- 61
2020-09-13 01:00:00 19.3 9 Sudoeste 16 Sudoeste 0 -- -- 61
2020-09-13 00:00:00 20.3 8 Sudoeste 13 Sudoeste 0 -- -- 59
2020-09-12 23:00:00 21.4 6 Sudoeste 13 Oeste 0 -- -- 58
2020-09-12 22:00:00 22.5 6 Sudoeste 13 Sudoeste 0 -- -- 54
2020-09-12 21:00:00 23.6 7 Sudoeste 16 Sur 0 -- -- 52
2020-09-12 20:00:00 24.8 6 Sur 23 Sur 0 -- -- 50
2020-09-12 19:00:00 27.1 12 Sudoeste 25 Sur 0 -- -- 42
2020-09-12 18:00:00 28.6 12 Sur 26 Sur 0 -- -- 37
2020-09-12 17:00:00 28.9 9 Sur 27 Sur 0 -- -- 35
2020-09-12 16:00:00 31.2 10 Sudoeste 25 Sur 0 -- -- 30
2020-09-12 15:00:00 31.3 7 Sur 21 Sur 0 -- -- 30
2020-09-12 14:00:00 30.4 8 Sudeste 21 Sudoeste 0 -- -- 31
2020-09-12 13:00:00 29.5 8 Este 14 Nordeste 0 -- -- 33
2020-09-12 12:00:00 26.8 8 Este 15 Este 0 -- -- 43
2020-09-12 11:00:00 24.8 6 Este 9 Nordeste 0 -- -- 46
2020-09-12 10:00:00 23.6 2 Este 11 Sudoeste 0 -- -- 49
2020-09-12 09:00:00 18.4 8 Sudoeste 14 Sudoeste 0 -- -- 61
2020-09-12 08:00:00 16.6 9 Sudoeste 15 Sudoeste 0 -- -- 65
2020-09-12 07:00:00 16.8 9 Sudoeste 14 Sudoeste 0 -- -- 65
2020-09-12 06:00:00 17.3 7 Oeste 13 Sudoeste 0 -- -- 63
2020-09-12 05:00:00 17.8 9 Sudoeste 14 Sudoeste 0 -- -- 60
2020-09-12 04:00:00 18.1 6 Oeste 14 Sudoeste 0 -- -- 59
2020-09-12 03:00:00 18.6 9 Sudoeste 15 Sudoeste 0 -- -- 58
2020-09-12 02:00:00 19.5 9 Sudoeste 14 Sudoeste 0 -- -- 56
2020-09-12 01:00:00 20.4 9 Sudoeste 16 Oeste 0 -- -- 53
2020-09-12 00:00:00 20.8 5 Oeste 12 Oeste 0 -- -- 54
2020-09-11 23:00:00 21.5 5 Oeste 13 Sudoeste 0 -- -- 51
2020-09-11 22:00:00 22.6 9 Sudoeste 17 Sudoeste 0 -- -- 53
2020-09-11 21:00:00 23 6 Sudoeste 24 Sur 0 -- -- 54
2020-09-11 20:00:00 23.9 11 Sur 31 Sudoeste 0 -- -- 54
2020-09-11 19:00:00 25 13 Sudoeste 31 Sur 0 -- -- 48
2020-09-11 18:00:00 27.6 13 Sudoeste 31 Sur 0 -- -- 41
2020-09-11 17:00:00 28.3 14 Sur 28 Sudoeste 0 -- -- 40
2020-09-11 16:00:00 27.9 10 Sur 24 Sur 0 -- -- 39
2020-09-11 15:00:00 28.4 13 Sudeste 25 Este 0 -- -- 34
2020-09-11 14:00:00 29.7 13 Sudeste 29 Sudeste 0 -- -- 32
2020-09-11 13:00:00 29.6 7 Sur 25 Sudeste 0 -- -- 32
2020-09-11 12:00:00 28.7 4 Este 13 Nordeste 0 -- -- 34
2020-09-11 11:00:00 24.4 7 Nordeste 12 Nordeste 0 -- -- 49
2020-09-11 10:00:00 22.5 5 Este 8 Sudoeste 0 -- -- 51
2020-09-11 09:00:00 19.5 6 Oeste 14 Sudoeste 0 -- -- 59
2020-09-11 08:00:00 16.4 5 Sudoeste 15 Oeste 0 -- -- 69
2020-09-11 07:00:00 16.2 7 Oeste 17 Sudoeste 0 -- -- 70
2020-09-11 06:00:00 16.6 8 Oeste 16 Sudoeste 0 -- -- 69
2020-09-11 05:00:00 16.8 9 Sudoeste 17 Sudoeste 0 -- -- 70
2020-09-11 04:00:00 16.9 2 Nordeste 15 Oeste 0 -- -- 73
2020-09-11 03:00:00 17.8 5 Sudoeste 15 Sudoeste 0 -- -- 74
2020-09-11 02:00:00 18.3 5 Sudoeste 13 Sudoeste 0 -- -- 75
2020-09-11 01:00:00 19.1 5 Oeste 12 Sudoeste 0 -- -- 74
2020-09-11 00:00:00 19.3 5 Sudoeste 13 Sudoeste 0 -- -- 78
2020-09-10 23:00:00 19.7 9 Sudoeste 14 Sudoeste 0 -- -- 78
2020-09-10 22:00:00 20.2 6 Sudoeste 13 Sudoeste 0 -- -- 76
2020-09-10 21:00:00 21.1 7 Sudoeste 14 Sur 0 -- -- 72
2020-09-10 20:00:00 22.3 10 Sudoeste 24 Sudoeste 0 -- -- 67
2020-09-10 19:00:00 25.7 5 Nordeste 15 Este 0 -- -- 44
2020-09-10 18:00:00 25.6 8 Nordeste 24 Nordeste 0 -- -- 43
2020-09-10 17:00:00 27 13 Este 27 Este 0 -- -- 42
2020-09-10 16:00:00 25.9 10 Este 21 Nordeste 0 -- -- 46
2020-09-10 15:00:00 25.5 13 Nordeste 27 Nordeste 0 -- -- 46
2020-09-10 14:00:00 26.4 11 Nordeste 22 Nordeste 0 -- -- 41
2020-09-10 13:00:00 25.4 9 Nordeste 18 Nordeste 0 -- -- 43
2020-09-10 12:00:00 24.2 10 Nordeste 17 Este 0 -- -- 52
2020-09-10 11:00:00 22.7 5 Nordeste 11 Este 0 -- -- 59
2020-09-10 10:00:00 19.7 6 Este 10 Este 0 -- -- 68
2020-09-10 09:00:00 18.4 4 Oeste 12 Oeste 0 -- -- 72
2020-09-10 08:00:00 15.5 4 Oeste 12 Oeste 0 -- -- 83
2020-09-10 07:00:00 15.2 6 Sudoeste 14 Oeste 0 -- -- 83
2020-09-10 06:00:00 15.1 4 Sudoeste 14 Oeste 0 -- -- 83
2020-09-10 05:00:00 15.6 7 Sudoeste 17 Sudoeste 0 -- -- 81
2020-09-10 04:00:00 15.6 5 Sudoeste 12 Sudoeste 0 -- -- 78
2020-09-10 03:00:00 16.5 3 Sudoeste 12 Sudoeste 0 -- -- 74
2020-09-10 02:00:00 16.6 3 Sudoeste 14 Sudoeste 0 -- -- 73
2020-09-10 01:00:00 17.3 5 Sudoeste 13 Sudoeste 0 -- -- 71
2020-09-10 00:00:00 17.9 8 Sudoeste 12 Oeste 0 -- -- 69
2020-09-09 23:00:00 18.2 7 Sudoeste 12 Oeste 0 -- -- 71
2020-09-09 22:00:00 18.8 2 Sudoeste 6 Sur 0 -- -- 72
2020-09-09 21:00:00 19.8 2 Sur 9 Norte 0 -- -- 68
2020-09-09 20:00:00 21.1 5 Norte 17 Nordeste 0 -- -- 63
2020-09-09 19:00:00 22.6 12 Nordeste 23 Este 0 -- -- 61
2020-09-09 18:00:00 23.5 9 Este 23 Nordeste 0 -- -- 55
2020-09-09 17:00:00 24.3 12 Nordeste 22 Nordeste 0 -- -- 50
2020-09-09 16:00:00 24.6 11 Nordeste 25 Este 0 -- -- 49
2020-09-09 15:00:00 25.5 6 Nordeste 24 Nordeste 0 -- -- 47
2020-09-09 14:00:00 24.6 9 Nordeste 25 Este 0 -- -- 50
2020-09-09 13:00:00 23 10 Nordeste 25 Este 0 -- -- 54
2020-09-09 12:00:00 21.8 11 Este 24 Este 0 -- -- 62
2020-09-09 11:00:00 20.9 9 Este 19 Este 0 -- -- 66
2020-09-09 10:00:00 18.8 4 Este 9 Este 0 -- -- 71
2020-09-09 09:00:00 16.6 3 Nordeste 6 Este 0 -- -- 77
2020-09-09 08:00:00 16.2 0 Calma 6 Este 0 -- -- 80
2020-09-09 07:00:00 16.3 0 Calma 8 Sudoeste 0 -- -- 72
2020-09-09 06:00:00 16.4 4 Sudoeste 8 Oeste 0 -- -- 70
2020-09-09 05:00:00 16.3 2 Oeste 12 Sudoeste 0 -- -- 70
2020-09-09 04:00:00 16.3 5 Sudoeste 12 Sur 0 -- -- 69
2020-09-09 03:00:00 15.9 7 Sudoeste 14 Sudoeste 0 -- -- 70
2020-09-09 02:00:00 15.7 4 Oeste 14 Sudoeste 0 -- -- 69
2020-09-09 01:00:00 15.9 0 Calma 14 Sudoeste 0 -- -- 61
2020-09-09 00:00:00 15.9 6 Sudoeste 10 Sudoeste 0 -- -- 57
2020-09-08 23:00:00 17.1 3 Sudoeste 10 Sudoeste 0 -- -- 52
2020-09-08 22:00:00 17.8 5 Sudoeste 10 Sudoeste 0 -- -- 50
2020-09-08 21:00:00 18.6 3 Este 13 Norte 0 -- -- 48
2020-09-08 20:00:00 20.2 4 Nordeste 22 Nordeste 0 -- -- 41
2020-09-08 19:00:00 21.6 12 Nordeste 23 Este 0 -- -- 41
2020-09-08 18:00:00 22.4 12 Nordeste 22 Nordeste 0 -- -- 42
2020-09-08 17:00:00 22.5 12 Nordeste 24 Nordeste 0 -- -- 47
2020-09-08 16:00:00 21.5 12 Nordeste 29 Nordeste 0 -- -- 55
2020-09-08 15:00:00 22.8 15 Nordeste 28 Nordeste 0 -- -- 52
2020-09-08 14:00:00 22.9 12 Nordeste 22 Nordeste 0 -- -- 52
2020-09-08 13:00:00 21.8 10 Nordeste 19 Este 0 -- -- 58
2020-09-08 12:00:00 19.8 9 Nordeste 20 Este 0 -- -- 69
2020-09-08 11:00:00 19.2 9 Nordeste 15 Nordeste 0 -- -- 75
2020-09-08 10:00:00 18.6 4 Sudeste 11 Nordeste 0 -- -- 75
2020-09-08 09:00:00 15.9 4 Sudoeste 7 Sur 0.4 -- -- 91
2020-09-08 08:00:00 14.9 0 Calma 15 Nordeste 0.2 -- -- 94
2020-09-08 07:00:00 15.9 2 Sudoeste 6 Sudoeste 0 -- -- 89
2020-09-08 06:00:00 15.2 0 Calma 5 Este 0 -- -- 93
2020-09-08 05:00:00 16 2 Este 5 Este 0 -- -- 92
2020-09-08 04:00:00 16.2 2 Este 5 Sudeste 0 -- -- 90
2020-09-08 03:00:00 16.5 0 Calma 4 Noroeste 0 -- -- 89
2020-09-08 02:00:00 16.5 0 Calma 3 Este 0 -- -- 90
2020-09-08 01:00:00 16.6 2 Nordeste 5 Sudeste 0 -- -- 88
2020-09-08 00:00:00 16.8 0 Calma 4 Sudeste 0 -- -- 88
2020-09-07 23:00:00 16.5 0 Calma 5 Este 0 -- -- 89
2020-09-07 22:00:00 16.9 3 Este 9 Este 0 -- -- 89
2020-09-07 21:00:00 17.5 7 Este 17 Este 0 -- -- 86
2020-09-07 20:00:00 18.4 9 Nordeste 28 Nordeste 0 -- -- 81
2020-09-07 19:00:00 18.7 13 Nordeste 29 Este 0 -- -- 79
2020-09-07 18:00:00 19.2 15 Nordeste 28 Nordeste 0 -- -- 75
2020-09-07 17:00:00 19.8 10 Nordeste 24 Nordeste 0 -- -- 71
2020-09-07 16:00:00 19.5 11 Nordeste 25 Nordeste 0 -- -- 70
2020-09-07 15:00:00 19.2 15 Nordeste 24 Este 0 -- -- 70
2020-09-07 14:00:00 18.5 10 Nordeste 25 Este 0 -- -- 74
2020-09-07 13:00:00 18.6 12 Nordeste 26 Nordeste 0 -- -- 78
2020-09-07 12:00:00 19.1 10 Norte 34 Norte 0 -- -- 85
2020-09-07 11:00:00 21.2 4 Nordeste 7 Este 0 -- -- 76
2020-09-07 10:00:00 20.5 2 Sur 6 Sur 0 -- -- 75
2020-09-07 09:00:00 18.4 2 Oeste 5 Sudoeste 0 -- -- 80
2020-09-07 08:00:00 17.4 3 Sudoeste 9 Sudoeste 0 -- -- 83
2020-09-07 07:00:00 16.8 4 Sudoeste 13 Sudoeste 0 -- -- 82
2020-09-07 06:00:00 16.6 5 Sudoeste 12 Sudoeste 0 -- -- 82
2020-09-07 05:00:00 17.1 6 Sudoeste 10 Sudoeste 0 -- -- 82
2020-09-07 04:00:00 18 3 Sudoeste 12 Sudoeste 0 -- -- 81
2020-09-07 03:00:00 18.7 4 Sudoeste 13 Sudoeste 0 -- -- 83
2020-09-07 02:00:00 19.5 8 Sudoeste 16 Sur 0 -- -- 83
2020-09-07 01:00:00 19.8 10 Sudoeste 18 Sudoeste 0 -- -- 84
2020-09-07 00:00:00 20.2 5 Sur 15 Sudoeste 0 -- -- 80
2020-09-06 23:00:00 20.7 7 Sudoeste 13 Sudoeste 0 -- -- 78
2020-09-06 22:00:00 21.6 5 Sur 17 Sudoeste 0 -- -- 76
2020-09-06 21:00:00 22.6 7 Sudoeste 17 Sudoeste 0 -- -- 72
2020-09-06 20:00:00 24.1 7 Sur 18 Este 0 -- -- 66
2020-09-06 19:00:00 26.9 11 Este 20 Nordeste 0 -- -- 56
2020-09-06 18:00:00 28.7 9 Nordeste 23 Este 0 -- -- 51
2020-09-06 17:00:00 29.6 9 Nordeste 24 Este 0 -- -- 44
2020-09-06 16:00:00 29.4 9 Nordeste 18 Este 0 -- -- 42
2020-09-06 15:00:00 29.3 6 Nordeste 17 Nordeste 0 -- -- 39
2020-09-06 14:00:00 27.9 5 Sudeste 16 Este 0 -- -- 46
2020-09-06 13:00:00 26.5 6 Nordeste 17 Este 0 -- -- 49
2020-09-06 12:00:00 24.8 8 Este 17 Este 0 -- -- 57
2020-09-06 11:00:00 23 5 Este 10 Sudeste 0 -- -- 63
2020-09-06 10:00:00 21.8 2 Este 9 Sudoeste 0 -- -- 67
2020-09-06 09:00:00 17.1 5 Sudoeste 14 Sudoeste 0 -- -- 84
2020-09-06 08:00:00 16.4 5 Sudoeste 10 Sudoeste 0 -- -- 84
2020-09-06 07:00:00 16.2 5 Sudoeste 14 Sudoeste 0 -- -- 81
2020-09-06 06:00:00 16.1 5 Sudoeste 12 Sudoeste 0 -- -- 80
2020-09-06 05:00:00 15.8 5 Oeste 12 Sudoeste 0 -- -- 82
2020-09-06 04:00:00 16.1 7 Sudoeste 13 Sudoeste 0 -- -- 82
2020-09-06 03:00:00 16.7 5 Sudoeste 9 Oeste 0 -- -- 83
2020-09-06 02:00:00 17.1 6 Sudoeste 11 Sudoeste 0 -- -- 81
2020-09-06 01:00:00 18.1 5 Sudoeste 11 Sudoeste 0 -- -- 80
2020-09-06 00:00:00 18.3 0 Calma 3 Sudeste 0 -- -- 88
2020-09-05 23:00:00 19.5 0 Calma 6 Este 0 -- -- 84
2020-09-05 22:00:00 20.7 4 Este 13 Nordeste 0 -- -- 79
2020-09-05 21:00:00 22.4 7 Nordeste 19 Nordeste 0 -- -- 69
2020-09-05 20:00:00 24.5 10 Nordeste 19 Nordeste 0 -- -- 51
2020-09-05 19:00:00 26.9 10 Nordeste 22 Nordeste 0 -- -- 30
2020-09-05 18:00:00 28.1 11 Nordeste 27 Nordeste 0 -- -- 33
2020-09-05 17:00:00 28.5 13 Este 23 Nordeste 0 -- -- 34
2020-09-05 16:00:00 28.6 13 Nordeste 22 Nordeste 0 -- -- 41
2020-09-05 15:00:00 29 10 Nordeste 20 Este 0 -- -- 30
2020-09-05 14:00:00 28.1 7 Nordeste 18 Nordeste 0 -- -- 36
2020-09-05 13:00:00 27 5 Nordeste 14 Este 0 -- -- 44
2020-09-05 12:00:00 24.9 5 Nordeste 13 Este 0 -- -- 53
2020-09-05 11:00:00 23.2 6 Este 14 Este 0 -- -- 58
2020-09-05 10:00:00 22.1 3 Este 6 Sudoeste 0 -- -- 65
2020-09-05 09:00:00 18 3 Sudoeste 12 Sudoeste 0 -- -- 81
2020-09-05 08:00:00 15.9 5 Sudoeste 14 Sudoeste 0 -- -- 91
2020-09-05 07:00:00 15.9 5 Sudoeste 12 Sudoeste 0 -- -- 89
2020-09-05 06:00:00 16.1 6 Sudoeste 13 Sudoeste 0 -- -- 88
2020-09-05 05:00:00 16.4 8 Sudoeste 13 Sudoeste 0 -- -- 85
2020-09-05 04:00:00 16.7 6 Sudoeste 12 Sudoeste 0 -- -- 85
2020-09-05 03:00:00 17.2 6 Sudoeste 13 Sudoeste 0 -- -- 83
2020-09-05 02:00:00 18 5 Sudoeste 10 Sudoeste 0 -- -- 82
2020-09-05 01:00:00 18.8 5 Sudoeste 10 Sudoeste 0 -- -- 83
2020-09-05 00:00:00 19.2 4 Sudoeste 11 Sudoeste 0 -- -- 81
2020-09-04 23:00:00 20 6 Sudoeste 12 Sudoeste 0 -- -- 78
2020-09-04 22:00:00 21 3 Sur 9 Sudoeste 0 -- -- 74
2020-09-04 21:00:00 22.4 4 Norte 11 Nordeste 0 -- -- 66
2020-09-04 20:00:00 24.1 8 Nordeste 14 Nordeste 0 -- -- 62
2020-09-04 19:00:00 25.2 11 Este 21 Este 0 -- -- 57
2020-09-04 18:00:00 26.9 11 Este 22 Este 0 -- -- 51
2020-09-04 17:00:00 28.3 9 Nordeste 20 Norte 0 -- -- 45
2020-09-04 16:00:00 28.2 7 Este 21 Este 0 -- -- 41
2020-09-04 15:00:00 27.1 6 Sur 18 Sudeste 0 -- -- 44
2020-09-04 14:00:00 26.7 10 Este 18 Este 0 -- -- 47
2020-09-04 13:00:00 26.7 5 Sudeste 18 Sudeste 0 -- -- 47
2020-09-04 12:00:00 24.9 4 Este 14 Este 0 -- -- 49
2020-09-04 11:00:00 23.3 7 Nordeste 12 Este 0 -- -- 48
2020-09-04 10:00:00 21.7 3 Este 12 Sudoeste 0 -- -- 46
2020-09-04 09:00:00 17.1 6 Sudoeste 14 Sudoeste 0 -- -- 57
2020-09-04 08:00:00 14.5 8 Oeste 17 Sudoeste 0 -- -- 64
2020-09-04 07:00:00 14.2 9 Sudoeste 15 Sudoeste 0 -- -- 66
2020-09-04 06:00:00 14.4 8 Sudoeste 17 Sudoeste 0 -- -- 68
2020-09-04 05:00:00 14.9 10 Sudoeste 15 Sudoeste 0 -- -- 71
2020-09-04 04:00:00 15.4 8 Sudoeste 16 Sudoeste 0 -- -- 76
2020-09-04 03:00:00 16.6 10 Sudoeste 17 Sudoeste 0 -- -- 76
2020-09-04 02:00:00 17.4 8 Sudoeste 14 Sudoeste 0 -- -- 78
2020-09-04 01:00:00 18.1 5 Sudoeste 12 Sudoeste 0 -- -- 77
2020-09-04 00:00:00 18.9 6 Sudoeste 12 Sudoeste 0 -- -- 77
2020-09-03 23:00:00 19.7 6 Sudoeste 11 Sur 0 -- -- 75
2020-09-03 22:00:00 20.6 6 Sur 13 Sudeste 0 -- -- 72
2020-09-03 21:00:00 21.4 4 Sur 20 Sudoeste 0 -- -- 71
2020-09-03 20:00:00 22.7 7 Sudoeste 21 Sur 0 -- -- 67
2020-09-03 19:00:00 24.4 9 Sur 23 Sur 0 -- -- 60
2020-09-03 18:00:00 25.6 13 Sudoeste 27 Oeste 0 -- -- 56
2020-09-03 17:00:00 26.8 11 Sur 26 Oeste 0 -- -- 51
2020-09-03 16:00:00 27 10 Sudoeste 23 Sur 0 -- -- 50
2020-09-03 15:00:00 25.7 7 Sur 20 Sudeste 0 -- -- 52
2020-09-03 14:00:00 27.3 12 Este 20 Sudeste 0 -- -- 47
2020-09-03 13:00:00 28.4 5 Noroeste 14 Nordeste 0 -- -- 41
2020-09-03 12:00:00 24.9 6 Nordeste 15 Este 0 -- -- 55
2020-09-03 11:00:00 22.8 6 Nordeste 14 Nordeste 0 -- -- 62
2020-09-03 10:00:00 21.4 5 Este 9 Este 0 -- -- 64
2020-09-03 09:00:00 18.1 4 Sudoeste 14 Sudoeste 0 -- -- 74
2020-09-03 08:00:00 15.7 5 Sudoeste 12 Sudoeste 0 -- -- 83
2020-09-03 07:00:00 15.5 6 Sudoeste 15 Oeste 0 -- -- 84
2020-09-03 06:00:00 16.1 8 Oeste 14 Oeste 0 -- -- 83
2020-09-03 05:00:00 16.5 6 Sudoeste 13 Sudoeste 0 -- -- 83
2020-09-03 04:00:00 16.7 4 Oeste 12 Sudoeste 0 -- -- 83
2020-09-03 03:00:00 17.1 6 Sudoeste 13 Sudoeste 0 -- -- 82
2020-09-03 02:00:00 17.7 8 Sudoeste 13 Oeste 0 -- -- 80
2020-09-03 01:00:00 18.1 5 Oeste 10 Sudoeste 0 -- -- 79
2020-09-03 00:00:00 18.6 3 Sudoeste 13 Sudoeste 0 -- -- 78
2020-09-02 23:00:00 19.1 6 Sudoeste 15 Sudoeste 0 -- -- 75
2020-09-02 22:00:00 20.2 7 Sudoeste 19 Sur 0 -- -- 73
2020-09-02 21:00:00 20.7 9 Sudoeste 23 Sudoeste 0 -- -- 70
2020-09-02 20:00:00 21.7 11 Sudoeste 23 Sur 0 -- -- 67
2020-09-02 19:00:00 23.5 8 Sur 19 Sur 0 -- -- 57
2020-09-02 18:00:00 25.3 8 Sur 19 Sudoeste 0 -- -- 48
2020-09-02 17:00:00 24.2 9 Sur 28 Sur 0 -- -- 50
2020-09-02 16:00:00 23.6 10 Sudoeste 31 Sudoeste 0 -- -- 54
2020-09-02 15:00:00 23.1 12 Sur 29 Sudeste 0 -- -- 52
2020-09-02 14:00:00 26.2 12 Este 22 Nordeste 0 -- -- 46
2020-09-02 13:00:00 25.4 8 Nordeste 17 Este 0 -- -- 52
2020-09-02 12:00:00 23.4 10 Este 18 Nordeste 0 -- -- 58
2020-09-02 11:00:00 21 5 Este 10 Este 0 -- -- 69
2020-09-02 10:00:00 20.3 2 Este 6 Este 0 -- -- 71
2020-09-02 09:00:00 18.7 3 Sudoeste 9 Sudoeste 0 -- -- 73
2020-09-02 08:00:00 16.5 4 Sudoeste 14 Sudoeste 0 -- -- 82
2020-09-02 07:00:00 16.3 6 Sudoeste 13 Sudoeste 0 -- -- 83
2020-09-02 06:00:00 17 5 Sudoeste 8 Sudoeste 0 -- -- 81
2020-09-02 05:00:00 16.6 0 Calma 3 Este 0 -- -- 84
2020-09-02 04:00:00 17.7 0 Calma 4 Sur 0 -- -- 82
2020-09-02 03:00:00 18.4 3 Nordeste 12 Sudoeste 0 -- -- 79
2020-09-02 02:00:00 18.9 5 Sudoeste 9 Sudoeste 0 -- -- 76
2020-09-02 01:00:00 18.8 0 Calma 13 Sur 0 -- -- 77
2020-09-02 00:00:00 19 6 Sudoeste 12 Sur 0 -- -- 76
2020-09-01 23:00:00 19.6 6 Sudoeste 13 Oeste 0 -- -- 74
2020-09-01 22:00:00 20 3 Sur 10 Sudoeste 0 -- -- 72
2020-09-01 21:00:00 21.4 6 Sudoeste 14 Sudoeste 0 -- -- 67
2020-09-01 20:00:00 23.5 3 Este 14 Nordeste 0 -- -- 57
2020-09-01 19:00:00 25.2 5 Oeste 17 Oeste 0 -- -- 50
2020-09-01 18:00:00 24.7 4 Sur 19 Sudoeste 0 -- -- 52
2020-09-01 17:00:00 23.2 9 Sur 22 Sur 0 -- -- 60
2020-09-01 16:00:00 25.3 5 Sudoeste 15 Sudoeste 0 -- -- 43
2020-09-01 15:00:00 25.5 6 Sudeste 14 Sudeste 0 -- -- 48
2020-09-01 14:00:00 24.8 4 Sudoeste 17 Sudeste 0 -- -- 50
2020-09-01 13:00:00 24.1 8 Este 15 Este 0 -- -- 51
2020-09-01 12:00:00 23.3 7 Este 15 Nordeste 0 -- -- 53
2020-09-01 11:00:00 21.9 6 Este 13 Este 0 -- -- 58
2020-09-01 10:00:00 19.9 6 Este 9 Este 0 -- -- 63
2020-09-01 09:00:00 17.6 7 Sudoeste 15 Sudoeste 0 -- -- 68
2020-09-01 08:00:00 14.8 6 Sudoeste 13 Sudoeste 0 -- -- 78
2020-09-01 07:00:00 14.3 5 Oeste 16 Sudoeste 0 -- -- 81
2020-09-01 06:00:00 14.9 6 Sudoeste 15 Sudoeste 0 -- -- 81
2020-09-01 05:00:00 15.7 7 Sudoeste 13 Sudoeste 0 -- -- 79
2020-09-01 04:00:00 16.2 6 Sudoeste 13 Sudoeste 0 -- -- 78
2020-09-01 03:00:00 16.7 8 Sudoeste 13 Sudoeste 0 -- -- 77
2020-09-01 02:00:00 17.6 6 Sudoeste 14 Sudoeste 0 -- -- 71
2020-09-01 01:00:00 17.9 5 Sudoeste 13 Oeste 0 -- -- 70
2020-09-01 00:00:00 18.2 5 Sudoeste 13 Sur 0 -- -- 70
2020-08-31 23:00:00 18.7 7 Sur 21 Sudoeste 0 -- -- 69
2020-08-31 22:00:00 19.3 7 Sudoeste 18 Sur 0 -- -- 68
2020-08-31 21:00:00 19.8 7 Sur 29 Sur 0 -- -- 65
2020-08-31 20:00:00 20.5 14 Sur 28 Sudeste 0 -- -- 61
2020-08-31 19:00:00 21.7 12 Sur 32 Sur 0 -- -- 56
2020-08-31 18:00:00 23.6 14 Sur 38 Sur 0 -- -- 49
2020-08-31 17:00:00 25.3 13 Sur 31 Sur 0 -- -- 44
2020-08-31 16:00:00 25.4 14 Sudeste 31 Este 0 -- -- 43
2020-08-31 15:00:00 25 12 Sur 28 Sur 0 -- -- 42
2020-08-31 14:00:00 26.3 10 Sudeste 23 Este 0 -- -- 32
2020-08-31 13:00:00 24.7 8 Este 20 Nordeste 0 -- -- 36
2020-08-31 12:00:00 22.9 8 Nordeste 18 Este 0 -- -- 46
2020-08-31 11:00:00 21.5 5 Sudeste 12 Este 0 -- -- 54
2020-08-31 10:00:00 21.2 2 Noroeste 8 Sur 0 -- -- 54
2020-08-31 09:00:00 16 4 Sudoeste 11 Sudoeste 0 -- -- 68
2020-08-31 08:00:00 13.4 6 Sudoeste 15 Sudoeste 0 -- -- 74
2020-08-31 07:00:00 12.8 6 Sudoeste 13 Sudoeste 0 -- -- 74
2020-08-31 06:00:00 13.2 6 Oeste 12 Sudoeste 0 -- -- 70
2020-08-31 05:00:00 13.3 7 Sudoeste 15 Sudoeste 0 -- -- 67
2020-08-31 04:00:00 13.5 5 Oeste 15 Oeste 0 -- -- 68
2020-08-31 03:00:00 14 4 Sudoeste 15 Oeste 0 -- -- 69
2020-08-31 02:00:00 14.7 9 Sudoeste 18 Oeste 0 -- -- 70
2020-08-31 01:00:00 15.1 4 Sudoeste 14 Sudoeste 0 -- -- 74
2020-08-31 00:00:00 15.9 4 Sudoeste 9 Sudoeste 0 -- -- 72
2020-08-30 23:00:00 17.2 5 Sudoeste 9 Sudoeste 0 -- -- 70
2020-08-30 22:00:00 17.5 4 Sur 6 Nordeste 0 -- -- 69
2020-08-30 21:00:00 19.1 4 Este 8 Nordeste 0 -- -- 61
2020-08-30 20:00:00 20.5 0 Calma 11 Este 0 -- -- 56
2020-08-30 19:00:00 20.5 8 Este 18 Sudeste 0 -- -- 55
2020-08-30 18:00:00 20.7 12 Este 27 Este 0 -- -- 54
2020-08-30 17:00:00 21.6 11 Este 24 Este 0 -- -- 53
2020-08-30 16:00:00 25 8 Este 24 Sudeste 0 -- -- 35
2020-08-30 15:00:00 24.2 10 Este 22 Este 0 -- -- 33
2020-08-30 14:00:00 23.9 10 Nordeste 23 Este 0 -- -- 34
2020-08-30 13:00:00 23.1 10 Nordeste 19 Nordeste 0 -- -- 37
2020-08-30 12:00:00 21.5 9 Nordeste 16 Nordeste 0 -- -- 44
2020-08-30 11:00:00 19.9 7 Este 14 Este 0 -- -- 55
2020-08-30 10:00:00 17.8 7 Este 11 Este 0 -- -- 67
2020-08-30 09:00:00 16.8 3 Sudoeste 12 Sudoeste 0 -- -- 64
2020-08-30 08:00:00 14.3 5 Sudoeste 16 Sudoeste 0 -- -- 77
2020-08-30 07:00:00 13.9 4 Oeste 14 Sudoeste 0 -- -- 83
2020-08-30 06:00:00 14.2 6 Sudoeste 12 Sudoeste 0 -- -- 83
2020-08-30 05:00:00 14.6 6 Sudoeste 12 Sudoeste 0 -- -- 81
2020-08-30 04:00:00 15.3 6 Sudoeste 13 Sudoeste 0 -- -- 81
2020-08-30 03:00:00 15.4 4 Sudoeste 8 Sudoeste 0 -- -- 85
2020-08-30 02:00:00 16.1 5 Oeste 13 Sudoeste 0 -- -- 84
2020-08-30 01:00:00 17 5 Sudoeste 12 Sudoeste 0 -- -- 84
2020-08-30 00:00:00 17.3 0 Calma 6 Sur 0 -- -- 85
2020-08-29 23:00:00 17 4 Sur 6 Sur 0 -- -- 86
2020-08-29 22:00:00 17.1 0 Calma 7 Nordeste 0 -- -- 85
2020-08-29 21:00:00 18.2 4 Nordeste 14 Nordeste 0 -- -- 79
2020-08-29 20:00:00 19.1 9 Nordeste 22 Nordeste 0 -- -- 76
2020-08-29 19:00:00 19.8 11 Nordeste 27 Nordeste 0 -- -- 77
2020-08-29 18:00:00 20.5 12 Nordeste 26 Nordeste 0.4 -- -- 81
2020-08-29 17:00:00 20 13 Este 31 Nordeste 1.6 -- -- 81
2020-08-29 16:00:00 21.3 16 Este 31 Este 0 -- -- 69
2020-08-29 15:00:00 24.5 17 Este 31 Este 0 -- -- 59
2020-08-29 14:00:00 24.4 17 Nordeste 34 Nordeste 0 -- -- 59
2020-08-29 13:00:00 26 10 Nordeste 22 Este 0 -- -- 52
2020-08-29 12:00:00 25.2 9 Nordeste 17 Este 0 -- -- 57
2020-08-29 11:00:00 24.1 6 Nordeste 17 Nordeste 0 -- -- 62
2020-08-29 10:00:00 21.6 8 Nordeste 15 Nordeste 0 -- -- 73
2020-08-29 09:00:00 20.7 6 Norte 15 Nordeste 0 -- -- 78
2020-08-29 08:00:00 20.4 7 Nordeste 16 Nordeste 0 -- -- 81
2020-08-29 07:00:00 20.6 8 Nordeste 15 Norte 0 -- -- 82
2020-08-29 06:00:00 20.3 3 Oeste 11 Este 0 -- -- 86
2020-08-29 05:00:00 21.1 5 Este 12 Este 0 -- -- 84
2020-08-29 04:00:00 22.8 7 Este 24 Oeste 0 -- -- 64
2020-08-29 03:00:00 26.4 9 Oeste 21 Oeste 0 -- -- 32
2020-08-29 02:00:00 25.9 8 Sudoeste 16 Sudoeste 0 -- -- 44
2020-08-29 01:00:00 23.4 3 Nordeste 16 Este 0 -- -- 79
2020-08-29 00:00:00 27.1 4 Oeste 13 Sudoeste 0 -- -- 50
2020-08-28 23:00:00 28.1 6 Sudoeste 19 Oeste 0 -- -- 51
2020-08-28 22:00:00 29.8 8 Oeste 14 Sudoeste 0 -- -- 45
2020-08-28 21:00:00 29.6 5 Sudoeste 14 Sudoeste 0 -- -- 49
2020-08-28 20:00:00 30.1 5 Sudoeste 22 Sur 0 -- -- 47
2020-08-28 19:00:00 32 8 Sur 22 Sur 0 -- -- 44
2020-08-28 18:00:00 32.9 10 Sur 24 Sudoeste 0 -- -- 40
2020-08-28 17:00:00 35.3 11 Sudoeste 26 Sudoeste 0 -- -- 27
2020-08-28 16:00:00 35.3 9 Sur 25 Sudoeste 0 -- -- 26
2020-08-28 15:00:00 34.9 10 Sudoeste 28 Sudoeste 0 -- -- 25
2020-08-28 14:00:00 33.9 8 Sudeste 27 Sur 0 -- -- 29
2020-08-28 13:00:00 32.7 12 Sur 28 Sur 0 -- -- 29
2020-08-28 12:00:00 31.5 14 Sur 27 Sur 0 -- -- 26
2020-08-28 11:00:00 31.9 6 Sudeste 23 Sudeste 0 -- -- 20
2020-08-28 10:00:00 28.4 5 Sur 16 Sudoeste 0 -- -- 22
2020-08-28 09:00:00 24.5 3 Este 6 Noroeste 0 -- -- 43
2020-08-28 08:00:00 21.6 0 Calma 6 Oeste 0 -- -- 39
2020-08-28 07:00:00 21.7 2 Nordeste 7 Oeste 0 -- -- 35
2020-08-28 06:00:00 22.5 2 Sur 7 Oeste 0 -- -- 39
2020-08-28 05:00:00 23 0 Calma 9 Oeste 0 -- -- 38
2020-08-28 04:00:00 23.4 3 Noroeste 11 Oeste 0 -- -- 39
2020-08-28 03:00:00 22.6 3 Sur 6 Sudoeste 0 -- -- 58
2020-08-28 02:00:00 23.8 2 Este 6 Este 0 -- -- 46
2020-08-28 01:00:00 25.6 3 Este 9 Sur 0 -- -- 32
2020-08-28 00:00:00 27.8 5 Sur 16 Sudoeste 0 -- -- 26
2020-08-27 23:00:00 28.3 10 Sudoeste 21 Sudoeste 0 -- -- 27
2020-08-27 22:00:00 29.2 10 Sur 17 Sudoeste 0 -- -- 24
2020-08-27 21:00:00 29.1 8 Sur 22 Sur 0 -- -- 32
2020-08-27 20:00:00 30.4 10 Sur 31 Sur 0 -- -- 31
2020-08-27 19:00:00 31.5 12 Sudoeste 36 Sudoeste 0 -- -- 31
2020-08-27 18:00:00 32.8 15 Sur 37 Sudoeste 0 -- -- 34
2020-08-27 17:00:00 34.1 16 Sur 35 Sur 0 -- -- 30
2020-08-27 16:00:00 34.8 18 Sur 32 Sur 0 -- -- 29
2020-08-27 15:00:00 36 13 Sur 28 Sur 0 -- -- 23
2020-08-27 14:00:00 35.7 10 Sur 21 Sur 0 -- -- 22
2020-08-27 13:00:00 34.8 9 Este 15 Este 0 -- -- 26
2020-08-27 12:00:00 32.3 7 Nordeste 12 Este 0 -- -- 31
2020-08-27 11:00:00 29.5 9 Este 13 Este 0 -- -- 38
2020-08-27 10:00:00 28.9 4 Este 6 Este 0 -- -- 35
2020-08-27 09:00:00 26.1 0 Calma 7 Oeste 0 -- -- 39
2020-08-27 08:00:00 21.7 2 Sudoeste 4 Oeste 0 -- -- 51
2020-08-27 07:00:00 21 0 Calma 6 Noroeste 0 -- -- 45
2020-08-27 06:00:00 21.4 3 Oeste 6 Oeste 0 -- -- 43
2020-08-27 05:00:00 22.1 0 Calma 10 Oeste 0 -- -- 42
2020-08-27 04:00:00 23.1 6 Oeste 11 Sudoeste 0 -- -- 40
2020-08-27 03:00:00 23.5 4 Sudoeste 8 Noroeste 0 -- -- 39
2020-08-27 02:00:00 24.7 4 Oeste 12 Sudoeste 0 -- -- 35
2020-08-27 01:00:00 24.6 4 Oeste 10 Oeste 0 -- -- 34
2020-08-27 00:00:00 26.9 6 Sudoeste 14 Sudoeste 0 -- -- 31
2020-08-26 23:00:00 27.6 5 Sudoeste 13 Sur 0 -- -- 30
2020-08-26 22:00:00 28.4 6 Sudoeste 17 Sudoeste 0 -- -- 31
2020-08-26 21:00:00 29 7 Sudoeste 20 Sudoeste 0 -- -- 34
2020-08-26 20:00:00 30.9 11 Sudoeste 26 Sudoeste 0 -- -- 29
2020-08-26 19:00:00 32.6 12 Sur 27 Sur 0 -- -- 26
2020-08-26 18:00:00 33.9 14 Sur 30 Sudoeste 0 -- -- 25
2020-08-26 17:00:00 35.1 12 Sur 27 Sur 0 -- -- 24
2020-08-26 16:00:00 35.5 13 Sur 29 Sur 0 -- -- 23
2020-08-26 15:00:00 35.3 14 Sur 26 Sudeste 0 -- -- 25
2020-08-26 14:00:00 35.3 11 Sur 25 Sudoeste 0 -- -- 24
2020-08-26 13:00:00 33.8 14 Sur 30 Sur 0 -- -- 24
2020-08-26 12:00:00 33.6 9 Sudeste 25 Sur 0 -- -- 25
2020-08-26 11:00:00 30.5 6 Este 11 Este 0 -- -- 35
2020-08-26 10:00:00 27.4 3 Este 8 Este 0 -- -- 41
2020-08-26 09:00:00 24.7 3 Este 5 Oeste 0 -- -- 45
2020-08-26 08:00:00 20.9 0 Calma 4 Oeste 0 -- -- 50
2020-08-26 07:00:00 20.8 2 Sudoeste 9 Sudoeste 0 -- -- 49
2020-08-26 06:00:00 20.6 0 Calma 13 Sudoeste 0 -- -- 50
2020-08-26 05:00:00 22.2 6 Oeste 14 Sudoeste 0 -- -- 44
2020-08-26 04:00:00 22.5 6 Oeste 12 Oeste 0 -- -- 43
2020-08-26 03:00:00 22.3 3 Oeste 6 Sudoeste 0 -- -- 48
2020-08-26 02:00:00 22.8 0 Calma 6 Noroeste 0 -- -- 43
2020-08-26 01:00:00 24.9 4 Oeste 12 Sudoeste 0 -- -- 38
2020-08-26 00:00:00 26.8 7 Sudoeste 13 Sudoeste 0 -- -- 32
2020-08-25 23:00:00 27 6 Sudoeste 15 Sudoeste 0 -- -- 36
2020-08-25 22:00:00 28 6 Sudoeste 15 Sur 0 -- -- 34
2020-08-25 21:00:00 29 7 Sudoeste 25 Sudoeste 0 -- -- 35
2020-08-25 20:00:00 30.2 14 Sudoeste 28 Sudoeste 0 -- -- 35
2020-08-25 19:00:00 31.6 15 Sudoeste 32 Sur 0 -- -- 38
2020-08-25 18:00:00 33.2 14 Sur 34 Sur 0 -- -- 37
2020-08-25 17:00:00 34 13 Sur 32 Sur 0 -- -- 38
2020-08-25 16:00:00 34.7 13 Sur 26 Sur 0 -- -- 35
2020-08-25 15:00:00 34.7 12 Sur 25 Sudeste 0 -- -- 33
2020-08-25 14:00:00 34.9 8 Sudoeste 21 Sudeste 0 -- -- 31
2020-08-25 13:00:00 33.2 10 Sur 28 Sur 0 -- -- 32
2020-08-25 12:00:00 31.6 12 Sur 22 Sur 0 -- -- 33
2020-08-25 11:00:00 30 3 Este 7 Este 0 -- -- 40
2020-08-25 10:00:00 25.2 4 Este 7 Este 0 -- -- 53
2020-08-25 09:00:00 22.1 4 Este 17 Oeste 0 -- -- 62
2020-08-25 08:00:00 20.1 8 Oeste 15 Oeste 0 -- -- 68
2020-08-25 07:00:00 19.4 8 Sudoeste 13 Sudoeste 0 -- -- 74
2020-08-25 06:00:00 20.2 7 Oeste 12 Oeste 0 -- -- 74
2020-08-25 05:00:00 20.4 8 Sudoeste 13 Sudoeste 0 -- -- 79
2020-08-25 04:00:00 20.9 8 Sudoeste 13 Sudoeste 0 -- -- 81
2020-08-25 03:00:00 21.4 7 Sudoeste 12 Oeste 0 -- -- 83
2020-08-25 02:00:00 22 7 Sudoeste 15 Sur 0 -- -- 82
2020-08-25 01:00:00 22.7 8 Sudoeste 15 Sudoeste 0 -- -- 80
2020-08-25 00:00:00 22.6 5 Sur 14 Sur 0 -- -- 83
2020-08-24 23:00:00 23.1 8 Sur 18 Sudoeste 0 -- -- 81
2020-08-24 22:00:00 24.1 7 Sur 15 Sudoeste 0 -- -- 76
2020-08-24 21:00:00 25 8 Sudoeste 23 Sudoeste 0 -- -- 72
2020-08-24 20:00:00 26.5 10 Sudoeste 24 Sur 0 -- -- 67
2020-08-24 19:00:00 28.2 11 Sudoeste 23 Sur 0 -- -- 61
2020-08-24 18:00:00 29.2 10 Sur 23 Sudoeste 0 -- -- 56
2020-08-24 17:00:00 30.4 7 Sur 18 Sur 0 -- -- 51
2020-08-24 16:00:00 30.8 3 Sudeste 19 Sudoeste 0 -- -- 48
2020-08-24 15:00:00 30.4 10 Sur 20 Sur 0 -- -- 49
2020-08-24 14:00:00 29.7 7 Sur 17 Sudoeste 0 -- -- 52
2020-08-24 13:00:00 28.1 4 Sudoeste 14 Sur 0 -- -- 54
2020-08-24 12:00:00 27.2 4 Este 15 Sudoeste 0 -- -- 57
2020-08-24 11:00:00 26 6 Sudeste 15 Sur 0 -- -- 62
2020-08-24 10:00:00 26.1 5 Sudoeste 13 Este 0 -- -- 62
2020-08-24 09:00:00 24.5 4 Sudoeste 8 Sur 0 -- -- 68
2020-08-24 08:00:00 22.1 3 Sudoeste 6 Sudoeste 0 -- -- 83
2020-08-24 07:00:00 21.6 0 Calma 4 Este 0 -- -- 86
2020-08-24 06:00:00 21.8 3 Noroeste 6 Sudoeste 0 -- -- 85
2020-08-24 05:00:00 22.5 5 Sudoeste 8 Sudoeste 0 -- -- 82
2020-08-24 04:00:00 22.3 0 Calma 5 Oeste 0 -- -- 82
2020-08-24 03:00:00 22.3 3 Oeste 6 Sudoeste 0 -- -- 83
2020-08-24 02:00:00 22.7 4 Sudoeste 8 Sudoeste 0 -- -- 82
2020-08-24 01:00:00 23.1 3 Sudoeste 9 Sudoeste 0 -- -- 82
2020-08-24 00:00:00 23.6 3 Sur 8 Sudoeste 0 -- -- 80
2020-08-23 23:00:00 24.1 3 Sudoeste 8 Sur 0 -- -- 79
2020-08-23 22:00:00 24.7 3 Sur 15 Sur 0 -- -- 75
2020-08-23 21:00:00 25.2 3 Sur 15 Sur 0 -- -- 74
2020-08-23 20:00:00 26.4 5 Sur 15 Este 0 -- -- 69
2020-08-23 19:00:00 27.7 5 Sudeste 13 Sudeste 0 -- -- 64
2020-08-23 18:00:00 27.2 6 Sudeste 30 Nordeste 0 -- -- 66
2020-08-23 17:00:00 28.1 12 Nordeste 24 Norte 0 -- -- 69
2020-08-23 16:00:00 29.7 3 Noroeste 21 Este 0.2 -- -- 58
2020-08-23 15:00:00 28.8 10 Nordeste 23 Este 0 -- -- 61
2020-08-23 14:00:00 30.5 12 Nordeste 22 Este 0 -- -- 54
2020-08-23 13:00:00 29.6 10 Este 19 Este 0 -- -- 53
2020-08-23 12:00:00 28.6 11 Nordeste 19 Nordeste 0 -- -- 58
2020-08-23 11:00:00 27.1 8 Nordeste 18 Sudeste 0 -- -- 66
2020-08-23 10:00:00 26.4 6 Este 10 Este 0 -- -- 66
2020-08-23 09:00:00 23.9 4 Nordeste 11 Nordeste 0 -- -- 79
2020-08-23 08:00:00 22.5 3 Sudeste 6 Sudeste 0 -- -- 85
2020-08-23 07:00:00 22.3 3 Sur 5 Sur 0 -- -- 88
2020-08-23 06:00:00 22.3 0 Calma 7 Sudoeste 0 -- -- 88
2020-08-23 05:00:00 21.6 0 Calma 6 Sudoeste 0 -- -- 87
2020-08-23 04:00:00 21.9 4 Sudoeste 8 Sur 0 -- -- 86
2020-08-23 03:00:00 22.5 0 Calma 8 Sudoeste 0 -- -- 84
2020-08-23 02:00:00 22.9 4 Sur 7 Sur 0 -- -- 87
2020-08-23 01:00:00 23.2 0 Calma 6 Este 0 -- -- 91
2020-08-23 00:00:00 23.6 4 Este 9 Este 0 -- -- 90